createdAt,value
2022-12-15T00:00:12.349Z,100.00
2022-12-15T00:02:59.198Z,100.00
2022-12-15T00:05:49.954Z,100.00
2022-12-15T00:08:37.077Z,100.00
2022-12-15T00:11:24.003Z,100.00
2022-12-15T00:14:11.821Z,100.00
2022-12-15T00:16:58.131Z,98.28
2022-12-15T00:19:44.372Z,98.30
2022-12-15T00:22:30.717Z,98.55
2022-12-15T00:25:17.003Z,99.78
2022-12-15T00:28:03.069Z,100.00
2022-12-15T00:30:51.295Z,100.00
2022-12-15T00:33:38.066Z,100.00
2022-12-15T00:36:25.458Z,100.00
2022-12-15T00:38:53.296Z,100.00
2022-12-15T00:41:21.104Z,100.00
2022-12-15T00:43:49.739Z,100.00
2022-12-15T00:46:37.699Z,100.00
2022-12-15T00:49:25.634Z,99.33
2022-12-15T00:52:11.800Z,100.00
2022-12-15T00:54:58.274Z,100.00
2022-12-15T00:57:44.309Z,99.42
2022-12-15T01:00:32.008Z,99.34
2022-12-15T01:03:20.070Z,100.00
2022-12-15T01:06:06.393Z,100.00
2022-12-15T01:08:52.900Z,100.00
2022-12-15T01:11:39.795Z,100.00
2022-12-15T01:14:26.253Z,100.00
2022-12-15T01:17:12.444Z,100.00
2022-12-15T01:20:00.726Z,100.00
2022-12-15T01:22:28.640Z,99.46
2022-12-15T01:24:56.478Z,98.06
2022-12-15T01:27:24.483Z,98.49
2022-12-15T01:29:52.313Z,98.64
2022-12-15T01:32:20.036Z,98.43
2022-12-15T01:34:49.126Z,96.86
2022-12-15T01:37:16.879Z,96.13
2022-12-15T01:40:03.491Z,95.08
2022-12-15T01:42:31.420Z,94.79
2022-12-15T01:45:45.829Z,94.60
2022-12-15T01:48:20.697Z,93.47
2022-12-15T01:51:03.766Z,92.50
2022-12-15T01:53:45.589Z,91.64
2022-12-15T01:56:20.444Z,90.87
2022-12-15T01:58:53.788Z,90.77
2022-12-15T02:01:22.246Z,90.31
2022-12-15T02:03:50.174Z,89.83
2022-12-15T02:06:24.407Z,89.63
2022-12-15T02:08:56.853Z,88.77
2022-12-15T02:11:47.525Z,88.10
2022-12-15T02:14:33.418Z,87.80
2022-12-15T02:17:22.290Z,88.40
2022-12-15T02:20:51.581Z,87.83
2022-12-15T02:24:19.576Z,87.91
2022-12-15T02:27:30.394Z,86.24
2022-12-15T02:30:22.993Z,86.47
2022-12-15T02:33:03.637Z,85.63
2022-12-15T02:35:47.725Z,85.33
2022-12-15T02:38:15.611Z,84.92
2022-12-15T02:40:43.340Z,84.44
2022-12-15T02:43:11.532Z,84.13
2022-12-15T02:45:55.794Z,84.17
2022-12-15T02:48:42.870Z,84.13
2022-12-15T02:51:33.475Z,83.84
2022-12-15T02:54:31.523Z,83.42
2022-12-15T02:57:12.748Z,83.52
2022-12-15T02:59:55.394Z,83.27
2022-12-15T03:02:30.074Z,83.23
2022-12-15T03:04:59.002Z,82.96
2022-12-15T03:07:28.377Z,82.81
2022-12-15T03:09:59.744Z,81.96
2022-12-15T03:12:27.640Z,81.15
2022-12-15T03:14:55.401Z,81.59
2022-12-15T03:17:24.593Z,80.37
2022-12-15T03:19:52.477Z,80.02
2022-12-15T03:22:20.319Z,80.20
2022-12-15T03:24:48.428Z,80.93
2022-12-15T03:27:16.238Z,80.00
2022-12-15T03:29:44.067Z,79.29
2022-12-15T03:32:11.927Z,78.80
2022-12-15T03:34:41.837Z,79.68
2022-12-15T03:37:09.594Z,79.70
2022-12-15T03:39:37.409Z,79.48
2022-12-15T03:42:05.385Z,80.23
2022-12-15T03:44:33.267Z,80.19
2022-12-15T03:47:03.585Z,80.09
2022-12-15T03:49:31.768Z,80.12
2022-12-15T03:52:01.061Z,80.45
2022-12-15T03:54:28.856Z,80.22
2022-12-15T03:56:56.562Z,80.15
2022-12-15T03:59:24.484Z,80.45
2022-12-15T04:01:52.368Z,81.36
2022-12-15T04:04:20.233Z,81.83
2022-12-15T04:06:48.093Z,82.98
2022-12-15T04:09:17.161Z,83.15
2022-12-15T04:11:44.902Z,83.50
2022-12-15T04:14:12.942Z,84.19
2022-12-15T04:16:40.709Z,83.94
2022-12-15T04:19:26.928Z,85.33
2022-12-15T04:21:54.800Z,85.25
2022-12-15T04:24:42.621Z,85.46
2022-12-15T04:27:29.201Z,84.64
2022-12-15T04:30:16.014Z,85.09
2022-12-15T04:33:03.252Z,85.45
2022-12-15T04:35:52.637Z,85.85
2022-12-15T04:38:50.352Z,84.57
2022-12-15T04:41:41.568Z,85.44
2022-12-15T04:44:30.314Z,84.77
2022-12-15T04:47:17.352Z,84.62
2022-12-15T04:50:04.024Z,84.43
2022-12-15T04:52:50.637Z,85.26
2022-12-15T04:55:37.235Z,85.18
2022-12-15T04:58:26.935Z,85.96
2022-12-15T05:01:16.424Z,85.76
2022-12-15T05:04:03.087Z,86.25
2022-12-15T05:06:49.296Z,86.95
2022-12-15T05:09:35.783Z,88.34
2022-12-15T05:12:22.615Z,88.75
2022-12-15T05:15:10.479Z,90.67
2022-12-15T05:17:57.010Z,90.46
2022-12-15T05:20:43.238Z,90.33
2022-12-15T05:23:30.234Z,89.96
2022-12-15T05:26:17.672Z,89.67
2022-12-15T05:29:03.692Z,90.10
2022-12-15T05:31:51.723Z,89.14
2022-12-15T05:34:21.560Z,89.59
2022-12-15T05:36:50.059Z,90.04
2022-12-15T05:39:19.761Z,91.38
2022-12-15T05:41:48.068Z,91.47
2022-12-15T05:44:15.813Z,91.11
2022-12-15T05:46:45.753Z,90.73
2022-12-15T05:49:17.046Z,90.46
2022-12-15T05:51:47.461Z,91.64
2022-12-15T05:54:18.644Z,93.11
2022-12-15T05:56:50.034Z,93.58
2022-12-15T05:59:19.455Z,93.52
2022-12-15T06:01:48.793Z,92.64
2022-12-15T06:04:16.822Z,93.00
2022-12-15T06:06:44.847Z,92.82
2022-12-15T06:09:12.642Z,93.29
2022-12-15T06:11:40.474Z,93.94
2022-12-15T06:14:09.444Z,94.43
2022-12-15T06:16:44.225Z,93.92
2022-12-15T06:19:20.239Z,93.51
2022-12-15T06:21:48.594Z,94.73
2022-12-15T06:24:16.344Z,94.32
2022-12-15T06:26:44.545Z,94.27
2022-12-15T06:29:13.265Z,93.41
2022-12-15T06:31:42.552Z,93.97
2022-12-15T06:34:14.178Z,93.84
2022-12-15T06:36:44.093Z,94.74
2022-12-15T06:39:15.005Z,95.17
2022-12-15T06:41:43.247Z,94.52
2022-12-15T06:44:15.031Z,94.50
2022-12-15T06:46:44.165Z,93.76
2022-12-15T06:49:12.256Z,95.13
2022-12-15T06:51:41.310Z,96.05
2022-12-15T06:54:11.183Z,96.79
2022-12-15T06:56:39.628Z,97.79
2022-12-15T06:59:08.414Z,97.42
2022-12-15T07:01:36.481Z,96.76
2022-12-15T07:04:05.436Z,96.82
2022-12-15T07:06:37.141Z,96.94
2022-12-15T07:09:07.959Z,97.26
2022-12-15T07:11:37.215Z,98.34
2022-12-15T07:14:05.352Z,98.05
2022-12-15T07:16:33.194Z,98.87
2022-12-15T07:19:01.008Z,99.69
2022-12-15T07:21:28.947Z,99.79
2022-12-15T07:23:57.928Z,100.00
2022-12-15T07:26:26.346Z,100.00
2022-12-15T07:28:56.344Z,100.00
2022-12-15T07:31:24.594Z,100.00
2022-12-15T07:33:54.250Z,99.79
2022-12-15T07:36:22.401Z,100.00
2022-12-15T07:38:51.466Z,100.00
2022-12-15T07:41:20.457Z,100.00
2022-12-15T07:43:49.066Z,100.00
2022-12-15T07:46:19.606Z,100.00
2022-12-15T07:48:50.536Z,100.00
2022-12-15T07:51:20.259Z,100.00
2022-12-15T07:53:49.808Z,100.00
2022-12-15T07:56:20.881Z,100.00
2022-12-15T07:58:49.520Z,100.00
2022-12-15T08:01:18.968Z,100.00
2022-12-15T08:03:49.056Z,100.00
2022-12-15T08:06:17.094Z,100.00
2022-12-15T08:08:50.802Z,100.00
2022-12-15T08:11:21.955Z,100.00
2022-12-15T08:14:02.678Z,100.00
2022-12-15T08:16:34.364Z,100.00
2022-12-15T08:19:03.223Z,100.00
2022-12-15T08:21:31.779Z,100.00
2022-12-15T08:24:02.766Z,100.00
2022-12-15T08:26:31.493Z,100.00
2022-12-15T08:29:31.985Z,100.00
2022-12-15T08:31:53.047Z,100.00
2022-12-15T08:34:21.191Z,100.00
2022-12-15T08:36:49.436Z,100.00
2022-12-15T08:39:17.593Z,100.00
2022-12-15T08:41:45.455Z,100.00
2022-12-15T08:44:13.466Z,100.00
2022-12-15T08:46:41.260Z,100.00
2022-12-15T08:49:10.810Z,100.00
2022-12-15T08:51:38.522Z,100.00
2022-12-15T08:54:06.334Z,100.00
2022-12-15T08:56:35.717Z,100.00
2022-12-15T08:59:04.054Z,100.00
2022-12-15T09:01:33.464Z,100.00
2022-12-15T09:04:04.195Z,100.00
2022-12-15T09:06:36.674Z,99.48
2022-12-15T09:09:08.083Z,98.83
2022-12-15T09:11:35.886Z,98.19
2022-12-15T09:14:04.335Z,97.22
2022-12-15T09:16:32.260Z,96.88
2022-12-15T09:19:00.495Z,96.49
2022-12-15T09:21:30.702Z,95.37
2022-12-15T09:24:02.500Z,95.27
2022-12-15T09:26:33.005Z,94.73
2022-12-15T09:29:01.945Z,92.98
2022-12-15T09:31:33.165Z,93.05
2022-12-15T09:34:01.991Z,92.56
2022-12-15T09:36:32.356Z,92.49
2022-12-15T09:39:02.634Z,90.38
2022-12-15T09:41:33.690Z,89.72
2022-12-15T09:44:06.393Z,88.24
2022-12-15T09:46:51.554Z,88.55
2022-12-15T09:49:38.888Z,87.27
2022-12-15T09:52:13.978Z,87.25
2022-12-15T09:54:44.764Z,87.16
2022-12-15T09:57:37.309Z,85.82
2022-12-15T10:00:21.052Z,85.42
2022-12-15T10:03:24.166Z,86.92
2022-12-15T10:06:27.082Z,84.14
2022-12-15T10:09:00.806Z,82.08
2022-12-15T10:11:50.967Z,82.05
2022-12-15T10:14:32.350Z,81.16
2022-12-15T10:17:17.091Z,80.89
2022-12-15T10:19:55.100Z,80.03
2022-12-15T10:22:27.068Z,78.91
2022-12-15T10:25:11.257Z,80.28
2022-12-15T10:28:22.320Z,80.27
2022-12-15T10:31:02.258Z,79.57
2022-12-15T10:33:36.472Z,79.64
2022-12-15T10:36:11.508Z,81.45
2022-12-15T10:38:43.524Z,80.09
2022-12-15T10:41:16.208Z,80.98
2022-12-15T10:43:50.300Z,78.83
2022-12-15T10:46:21.838Z,77.77
2022-12-15T10:48:54.189Z,78.49
2022-12-15T10:51:31.024Z,80.68
2022-12-15T10:54:11.074Z,78.04
2022-12-15T10:56:50.316Z,76.97
2022-12-15T10:59:29.389Z,76.61
2022-12-15T11:02:33.419Z,75.91
2022-12-15T11:05:05.959Z,76.90
2022-12-15T11:07:38.338Z,78.56
2022-12-15T11:10:17.823Z,78.32
2022-12-15T11:13:10.334Z,78.90
2022-12-15T11:15:45.806Z,78.76
2022-12-15T11:18:27.236Z,77.87
2022-12-15T11:21:04.454Z,78.39
2022-12-15T11:23:55.165Z,77.88
2022-12-15T11:26:36.472Z,78.52
2022-12-15T11:29:26.040Z,78.64
2022-12-15T11:31:58.913Z,80.05
2022-12-15T11:34:38.260Z,79.20
2022-12-15T11:37:36.866Z,78.51
2022-12-15T11:40:32.916Z,77.61
2022-12-15T11:43:41.527Z,77.68
2022-12-15T11:46:21.594Z,78.17
2022-12-15T11:49:28.235Z,78.43
2022-12-15T11:52:08.354Z,76.78
2022-12-15T11:54:47.106Z,75.86
2022-12-15T11:57:51.192Z,75.72
2022-12-15T12:00:21.520Z,75.88
2022-12-15T12:03:04.468Z,77.40
2022-12-15T12:05:50.573Z,76.47
2022-12-15T12:08:54.305Z,77.79
2022-12-15T12:11:32.782Z,73.35
2022-12-15T12:14:29.349Z,72.44
2022-12-15T12:17:06.728Z,73.48
2022-12-15T12:19:43.477Z,74.40
2022-12-15T12:22:24.408Z,74.13
2022-12-15T12:24:59.666Z,74.24
2022-12-15T12:27:39.467Z,72.91
2022-12-15T12:30:15.457Z,70.38
2022-12-15T12:32:55.175Z,69.95
2022-12-15T12:35:33.607Z,69.72
2022-12-15T12:38:05.204Z,71.47
2022-12-15T12:40:55.854Z,70.61
2022-12-15T12:43:33.806Z,67.05
2022-12-15T12:46:15.357Z,66.00
2022-12-15T12:48:53.795Z,64.23
2022-12-15T12:51:28.810Z,63.90
2022-12-15T12:54:00.100Z,63.46
2022-12-15T12:56:37.670Z,64.44
2022-12-15T12:59:37.575Z,64.39
2022-12-15T13:02:50.546Z,65.46
2022-12-15T13:05:33.234Z,64.37
2022-12-15T13:08:44.595Z,65.11
2022-12-15T13:11:57.325Z,65.32
2022-12-15T13:14:44.702Z,66.94
2022-12-15T13:17:27.482Z,65.96
2022-12-15T13:20:20.921Z,67.11
2022-12-15T13:22:49.593Z,66.07
2022-12-15T13:25:39.773Z,66.11
2022-12-15T13:28:31.150Z,66.85
2022-12-15T13:31:44.194Z,69.43
2022-12-15T13:34:19.483Z,71.07
2022-12-15T13:36:55.547Z,72.12
2022-12-15T13:39:57.563Z,73.90
2022-12-15T13:42:39.102Z,76.42
2022-12-15T13:45:48.659Z,78.04
2022-12-15T13:48:39.655Z,80.23
2022-12-15T13:51:32.891Z,81.12
2022-12-15T13:54:11.846Z,79.30
2022-12-15T13:56:52.802Z,75.93
2022-12-15T13:59:37.404Z,76.58
2022-12-15T14:02:24.921Z,76.80
2022-12-15T14:05:14.764Z,76.78
2022-12-15T14:07:54.316Z,75.56
2022-12-15T14:10:27.590Z,77.20
2022-12-15T14:12:58.350Z,76.69
2022-12-15T14:15:31.534Z,77.98
2022-12-15T14:18:02.031Z,78.82
2022-12-15T14:20:40.561Z,79.50
2022-12-15T14:23:19.187Z,79.67
2022-12-15T14:26:03.823Z,80.74
2022-12-15T14:28:34.687Z,83.27
2022-12-15T14:31:07.088Z,84.95
2022-12-15T14:33:40.313Z,85.91
2022-12-15T14:36:13.165Z,86.93
2022-12-15T14:38:48.229Z,87.47
2022-12-15T14:41:22.337Z,86.93
2022-12-15T14:44:32.159Z,87.78
2022-12-15T14:46:47.642Z,88.11
2022-12-15T14:49:23.133Z,89.05
2022-12-15T14:51:59.887Z,88.80
2022-12-15T14:54:33.089Z,90.37
2022-12-15T14:57:03.787Z,90.14
2022-12-15T14:59:35.553Z,89.88
2022-12-15T15:02:19.689Z,91.54
2022-12-15T15:04:59.772Z,92.52
2022-12-15T15:07:32.466Z,92.09
2022-12-15T15:10:02.780Z,91.63
2022-12-15T15:12:44.254Z,93.65
2022-12-15T15:15:18.786Z,94.63
2022-12-15T15:17:52.402Z,95.21
2022-12-15T15:20:26.642Z,95.00
2022-12-15T15:23:18.108Z,97.78
2022-12-15T15:25:51.445Z,98.46
2022-12-15T15:28:25.500Z,98.37
2022-12-15T15:30:56.690Z,98.62
2022-12-15T15:33:25.928Z,99.29
2022-12-15T15:35:57.440Z,98.81
2022-12-15T15:38:32.380Z,99.00
2022-12-15T15:41:11.587Z,99.42
2022-12-15T15:43:39.343Z,99.61
2022-12-15T15:46:13.214Z,99.20
2022-12-15T15:48:46.046Z,100.00
2022-12-15T15:51:14.462Z,100.00
2022-12-15T15:53:44.026Z,100.00
2022-12-15T15:56:16.277Z,100.00
2022-12-15T15:58:44.420Z,100.00
2022-12-15T16:01:13.523Z,100.00
2022-12-15T16:03:42.303Z,100.00
2022-12-15T16:06:18.263Z,100.00
2022-12-15T16:08:51.117Z,100.00
2022-12-15T16:11:20.055Z,100.00
2022-12-15T16:13:48.679Z,100.00
2022-12-15T16:16:19.727Z,100.00
2022-12-15T16:18:47.879Z,100.00
2022-12-15T16:21:17.813Z,100.00
2022-12-15T16:23:49.416Z,100.00
2022-12-15T16:26:27.062Z,100.00
2022-12-15T16:28:55.183Z,100.00
2022-12-15T16:31:35.453Z,100.00
2022-12-15T16:34:06.913Z,100.00
2022-12-15T16:36:35.125Z,100.00
2022-12-15T16:39:05.455Z,100.00
2022-12-15T16:41:33.542Z,100.00
2022-12-15T16:44:01.600Z,100.00
2022-12-15T16:46:29.580Z,100.00
2022-12-15T16:48:57.443Z,100.00
2022-12-15T16:51:39.195Z,100.00
2022-12-15T16:54:17.947Z,100.00
2022-12-15T16:56:45.847Z,100.00
2022-12-15T16:59:32.422Z,100.00
2022-12-15T17:02:01.983Z,100.00
2022-12-15T17:04:29.968Z,100.00
2022-12-15T17:06:57.979Z,100.00
2022-12-15T17:09:27.714Z,100.00
2022-12-15T17:11:57.235Z,100.00
2022-12-15T17:14:24.994Z,100.00
2022-12-15T17:16:52.650Z,100.00
2022-12-15T17:19:21.509Z,100.00
2022-12-15T17:21:53.368Z,100.00
2022-12-15T17:24:22.542Z,100.00
2022-12-15T17:26:51.715Z,100.00
2022-12-15T17:29:25.163Z,100.00
2022-12-15T17:31:53.044Z,100.00
2022-12-15T17:34:30.063Z,100.00
2022-12-15T17:37:02.141Z,100.00
2022-12-15T17:39:33.988Z,100.00
2022-12-15T17:42:05.805Z,100.00
2022-12-15T17:44:38.362Z,100.00
2022-12-15T17:47:08.873Z,100.00
2022-12-15T17:49:38.929Z,100.00
2022-12-15T17:52:22.792Z,100.00
2022-12-15T17:54:51.976Z,100.00
2022-12-15T17:57:21.258Z,100.00
2022-12-15T17:59:48.935Z,100.00
2022-12-15T18:02:17.188Z,100.00
2022-12-15T18:04:45.308Z,100.00
2022-12-15T18:07:19.360Z,100.00
2022-12-15T18:09:48.269Z,100.00
2022-12-15T18:12:19.397Z,100.00
2022-12-15T18:14:49.189Z,100.00
2022-12-15T18:17:17.147Z,100.00
2022-12-15T18:19:45.362Z,100.00
2022-12-15T18:22:15.353Z,100.00
2022-12-15T18:24:43.462Z,100.00
2022-12-15T18:27:23.202Z,100.00
2022-12-15T18:29:52.918Z,100.00
2022-12-15T18:32:25.353Z,100.00
2022-12-15T18:34:53.913Z,100.00
2022-12-15T18:37:28.051Z,100.00
2022-12-15T18:39:59.486Z,100.00
2022-12-15T18:42:31.904Z,100.00
2022-12-15T18:45:04.923Z,100.00
2022-12-15T18:47:33.697Z,100.00
2022-12-15T18:50:01.463Z,100.00
2022-12-15T18:52:34.422Z,100.00
2022-12-15T18:55:03.029Z,100.00
2022-12-15T18:57:33.516Z,100.00
2022-12-15T19:00:17.756Z,100.00
2022-12-15T19:02:45.877Z,100.00
2022-12-15T19:05:29.180Z,100.00
2022-12-15T19:08:01.535Z,100.00
2022-12-15T19:10:33.910Z,100.00
2022-12-15T19:13:01.933Z,100.00
2022-12-15T19:15:31.023Z,100.00
2022-12-15T19:18:17.871Z,100.00
2022-12-15T19:21:04.650Z,100.00
2022-12-15T19:23:33.067Z,100.00
2022-12-15T19:26:01.199Z,100.00
2022-12-15T19:28:29.322Z,100.00
2022-12-15T19:30:58.736Z,100.00
2022-12-15T19:33:26.625Z,100.00
2022-12-15T19:35:57.272Z,100.00
2022-12-15T19:38:30.260Z,100.00
2022-12-15T19:41:00.083Z,100.00
2022-12-15T19:43:28.027Z,100.00
2022-12-15T19:45:55.928Z,100.00
2022-12-15T19:48:25.191Z,100.00
2022-12-15T19:50:54.967Z,100.00
2022-12-15T19:53:27.128Z,100.00
2022-12-15T19:55:58.097Z,100.00
2022-12-15T19:58:30.110Z,100.00
2022-12-15T20:01:01.188Z,100.00
2022-12-15T20:03:32.312Z,100.00
2022-12-15T20:06:02.728Z,100.00
2022-12-15T20:08:35.313Z,100.00
2022-12-15T20:11:03.600Z,100.00
2022-12-15T20:13:31.989Z,100.00
2022-12-15T20:16:00.285Z,100.00
2022-12-15T20:18:28.115Z,100.00
2022-12-15T20:20:59.177Z,100.00
2022-12-15T20:23:29.484Z,100.00
2022-12-15T20:25:57.940Z,100.00
2022-12-15T20:28:29.156Z,100.00
2022-12-15T20:30:58.152Z,100.00
2022-12-15T20:33:25.867Z,100.00
2022-12-15T20:35:54.232Z,100.00
2022-12-15T20:38:31.739Z,100.00
2022-12-15T20:41:01.682Z,100.00
2022-12-15T20:43:32.425Z,100.00
2022-12-15T20:46:06.806Z,100.00
2022-12-15T20:48:36.672Z,100.00
2022-12-15T20:51:09.561Z,100.00
2022-12-15T20:53:39.198Z,100.00
2022-12-15T20:56:08.129Z,100.00
2022-12-15T20:58:39.142Z,100.00
2022-12-15T21:01:18.197Z,100.00
2022-12-15T21:03:47.399Z,100.00
2022-12-15T21:06:15.151Z,100.00
2022-12-15T21:08:44.750Z,100.00
2022-12-15T21:11:18.314Z,100.00
2022-12-15T21:13:49.402Z,100.00
2022-12-15T21:16:20.532Z,100.00
2022-12-15T21:21:43.220Z,100.00
2022-12-15T21:24:16.789Z,100.00
2022-12-15T21:26:46.006Z,100.00
2022-12-15T21:29:16.744Z,100.00
2022-12-15T21:31:45.428Z,100.00
2022-12-15T21:34:14.169Z,100.00
2022-12-15T21:36:46.401Z,100.00
2022-12-15T21:39:32.877Z,100.00
2022-12-15T21:42:05.607Z,100.00
2022-12-15T21:44:33.461Z,100.00
2022-12-15T21:47:01.209Z,100.00
2022-12-15T21:49:29.056Z,100.00
2022-12-15T21:52:00.787Z,100.00
2022-12-15T21:54:35.117Z,100.00
2022-12-15T21:57:03.413Z,100.00
2022-12-15T21:59:32.723Z,100.00
2022-12-15T22:02:01.687Z,100.00
2022-12-15T22:04:34.162Z,100.00
2022-12-15T22:07:02.306Z,100.00
2022-12-15T22:09:31.374Z,100.00
2022-12-15T22:11:59.116Z,100.00
2022-12-15T22:14:29.790Z,100.00
2022-12-15T22:16:58.944Z,100.00
2022-12-15T22:19:27.302Z,100.00
2022-12-15T22:21:55.108Z,100.00
2022-12-15T22:24:22.822Z,100.00
2022-12-15T22:26:52.087Z,100.00
2022-12-15T22:29:22.601Z,100.00
2022-12-15T22:31:51.767Z,100.00
2022-12-15T22:34:22.820Z,100.00
2022-12-15T22:36:50.744Z,100.00
2022-12-15T22:39:19.781Z,100.00
2022-12-15T22:41:51.366Z,100.00
2022-12-15T22:44:24.812Z,100.00
2022-12-15T22:46:56.891Z,100.00
2022-12-15T22:49:34.165Z,100.00
2022-12-15T22:52:02.595Z,100.00
2022-12-15T22:54:32.026Z,100.00
2022-12-15T22:57:06.361Z,100.00
2022-12-15T22:59:43.376Z,100.00
2022-12-15T23:02:11.789Z,100.00
2022-12-15T23:04:40.737Z,100.00
2022-12-15T23:07:12.287Z,100.00
2022-12-15T23:09:40.220Z,100.00
2022-12-15T23:12:09.312Z,100.00
2022-12-15T23:14:55.990Z,100.00
2022-12-15T23:17:23.829Z,100.00
2022-12-15T23:19:51.478Z,100.00
2022-12-15T23:22:19.299Z,100.00
2022-12-15T23:24:46.999Z,100.00
2022-12-15T23:27:16.085Z,100.00
2022-12-15T23:29:43.872Z,100.00
2022-12-15T23:32:11.717Z,100.00
2022-12-15T23:34:39.447Z,99.51
2022-12-15T23:37:07.309Z,100.00
2022-12-15T23:39:36.075Z,100.00
2022-12-15T23:42:05.452Z,100.00
2022-12-15T23:44:37.167Z,100.00
2022-12-15T23:47:05.123Z,100.00
2022-12-15T23:49:32.843Z,100.00
2022-12-15T23:52:00.619Z,100.00
2022-12-15T23:54:28.288Z,100.00
2022-12-15T23:56:56.007Z,100.00
2022-12-15T23:59:23.741Z,100.00
